createdAt,value
2018-09-25T00:02:28.341Z,7.75
2018-09-25T00:05:02.224Z,7.68
2018-09-25T00:07:36.132Z,7.55
2018-09-25T00:10:09.973Z,7.54
2018-09-25T00:12:43.761Z,7.58
2018-09-25T00:15:17.468Z,7.53
2018-09-25T00:17:51.267Z,7.62
2018-09-25T00:20:25.090Z,7.55
2018-09-25T00:22:59.031Z,7.34
2018-09-25T00:25:32.993Z,7.35
2018-09-25T00:28:06.617Z,7.14
2018-09-25T00:30:40.425Z,7.06
2018-09-25T00:33:14.348Z,7.07
2018-09-25T00:35:48.067Z,7.12
2018-09-25T00:38:21.980Z,7.00
2018-09-25T00:40:55.724Z,7.03
2018-09-25T00:43:29.377Z,7.05
2018-09-25T00:46:03.248Z,6.87
2018-09-25T00:48:37.105Z,6.80
2018-09-25T00:51:10.932Z,6.85
2018-09-25T00:53:44.798Z,6.88
2018-09-25T00:56:18.577Z,6.74
2018-09-25T00:58:52.512Z,6.91
2018-09-25T01:01:26.404Z,6.91
2018-09-25T01:04:00.133Z,6.73
2018-09-25T01:06:34.089Z,6.61
2018-09-25T01:09:08.040Z,6.74
2018-09-25T01:11:41.616Z,6.75
2018-09-25T01:14:15.574Z,6.77
2018-09-25T01:16:49.536Z,6.71
2018-09-25T01:19:23.449Z,6.64
2018-09-25T01:21:57.200Z,6.63
2018-09-25T01:24:31.088Z,6.71
2018-09-25T01:27:04.828Z,6.68
2018-09-25T01:29:38.676Z,6.63
2018-09-25T01:32:12.589Z,6.46
2018-09-25T01:34:46.362Z,6.57
2018-09-25T01:37:20.077Z,6.55
2018-09-25T01:39:54.016Z,6.52
2018-09-25T01:42:27.883Z,6.48
2018-09-25T01:45:01.753Z,6.36
2018-09-25T01:47:35.625Z,6.40
2018-09-25T01:50:09.533Z,6.43
2018-09-25T01:52:43.274Z,6.45
2018-09-25T01:55:17.119Z,6.32
2018-09-25T01:57:50.933Z,6.25
2018-09-25T02:00:24.797Z,6.24
2018-09-25T02:02:58.474Z,6.20
2018-09-25T02:05:32.300Z,6.19
2018-09-25T02:08:06.079Z,6.13
2018-09-25T02:10:39.795Z,6.19
2018-09-25T02:13:13.686Z,6.01
2018-09-25T02:15:47.580Z,5.94
2018-09-25T02:18:21.216Z,5.88
2018-09-25T02:20:55.128Z,5.92
2018-09-25T02:23:28.929Z,5.86
2018-09-25T02:26:02.608Z,5.89
2018-09-25T02:28:36.255Z,5.98
2018-09-25T02:31:09.984Z,6.12
2018-09-25T02:33:43.823Z,6.05
2018-09-25T02:36:17.638Z,6.15
2018-09-25T02:38:51.404Z,6.13
2018-09-25T02:41:25.224Z,6.21
2018-09-25T02:43:59.066Z,6.21
2018-09-25T02:46:32.917Z,6.15
2018-09-25T02:49:06.631Z,5.96
2018-09-25T02:51:40.399Z,5.89
2018-09-25T02:54:14.181Z,5.91
2018-09-25T02:56:47.858Z,5.98
2018-09-25T02:59:21.730Z,6.06
2018-09-25T03:01:55.640Z,5.97
2018-09-25T03:04:29.468Z,6.10
2018-09-25T03:07:03.228Z,6.05
2018-09-25T03:09:37.056Z,6.09
2018-09-25T03:12:10.973Z,6.00
2018-09-25T03:14:44.826Z,6.05
2018-09-25T03:17:18.548Z,5.95
2018-09-25T03:19:52.397Z,5.88
2018-09-25T03:22:26.274Z,5.90
2018-09-25T03:25:00.017Z,5.94
2018-09-25T03:27:33.881Z,5.97
2018-09-25T03:30:07.757Z,6.02
2018-09-25T03:32:41.664Z,6.03
2018-09-25T03:35:15.457Z,6.10
2018-09-25T03:37:49.334Z,6.06
2018-09-25T03:40:23.196Z,6.03
2018-09-25T03:42:56.996Z,5.93
2018-09-25T03:45:30.703Z,5.94
2018-09-25T03:48:04.326Z,5.99
2018-09-25T03:50:38.007Z,5.92
2018-09-25T03:53:11.820Z,5.90
2018-09-25T03:55:45.665Z,5.90
2018-09-25T03:58:19.554Z,5.80
2018-09-25T04:00:53.441Z,5.85
2018-09-25T04:03:27.280Z,5.92
2018-09-25T04:06:01.315Z,5.69
2018-09-25T04:08:35.161Z,5.56
2018-09-25T04:11:09.041Z,5.59
2018-09-25T04:13:42.849Z,5.40
2018-09-25T04:16:16.728Z,5.41
2018-09-25T04:18:50.531Z,5.48
2018-09-25T04:21:24.266Z,5.38
2018-09-25T04:23:58.112Z,5.32
2018-09-25T04:26:32.032Z,5.17
2018-09-25T04:29:05.969Z,5.19
2018-09-25T04:31:39.865Z,5.36
2018-09-25T04:34:13.697Z,5.16
2018-09-25T04:36:47.321Z,5.04
2018-09-25T04:39:21.100Z,5.14
2018-09-25T04:41:55.003Z,5.12
2018-09-25T04:44:28.753Z,4.93
2018-09-25T04:47:02.663Z,4.95
2018-09-25T04:49:36.685Z,4.92
2018-09-25T04:52:10.404Z,4.76
2018-09-25T04:54:44.218Z,4.73
2018-09-25T04:57:18.158Z,4.74
2018-09-25T04:59:51.906Z,4.79
2018-09-25T05:02:25.849Z,4.82
2018-09-25T05:04:59.645Z,4.83
2018-09-25T05:07:33.497Z,4.83
2018-09-25T05:10:07.467Z,4.88
2018-09-25T05:12:41.345Z,4.84
2018-09-25T05:15:15.204Z,5.00
2018-09-25T05:17:48.992Z,5.06
2018-09-25T05:20:22.768Z,5.21
2018-09-25T05:22:56.676Z,5.24
2018-09-25T05:25:31.502Z,5.26
2018-09-25T05:28:05.379Z,5.21
2018-09-25T05:30:39.132Z,5.38
2018-09-25T05:33:12.845Z,5.47
2018-09-25T05:35:46.662Z,5.58
2018-09-25T05:38:20.473Z,5.62
2018-09-25T05:40:54.315Z,5.66
2018-09-25T05:43:28.013Z,5.70
2018-09-25T05:46:01.937Z,5.82
2018-09-25T05:48:35.896Z,5.83
2018-09-25T05:51:09.559Z,6.04
2018-09-25T05:53:43.333Z,6.06
2018-09-25T05:56:17.280Z,6.08
2018-09-25T05:58:51.177Z,6.10
2018-09-25T06:01:24.985Z,6.12
2018-09-25T06:03:58.806Z,6.21
2018-09-25T06:06:32.697Z,6.30
2018-09-25T06:09:06.556Z,6.41
2018-09-25T06:11:40.337Z,6.53
2018-09-25T06:14:14.122Z,6.66
2018-09-25T06:16:47.918Z,6.78
2018-09-25T06:19:21.801Z,6.87
2018-09-25T06:21:55.660Z,7.10
2018-09-25T06:24:29.447Z,7.32
2018-09-25T06:27:03.209Z,7.66
2018-09-25T06:29:37.091Z,8.37
2018-09-25T06:32:11.147Z,9.99
2018-09-25T06:34:44.963Z,11.70
2018-09-25T06:37:18.962Z,13.76
2018-09-25T06:39:52.820Z,15.55
2018-09-25T06:42:27.187Z,17.20
2018-09-25T06:45:01.179Z,17.33
2018-09-25T06:47:34.959Z,17.23
2018-09-25T06:50:09.237Z,16.96
2018-09-25T06:52:43.084Z,17.68
2018-09-25T06:55:16.940Z,19.39
2018-09-25T06:57:51.451Z,21.44
2018-09-25T07:00:25.684Z,22.93
2018-09-25T07:02:59.582Z,24.28
2018-09-25T07:05:33.717Z,27.21
2018-09-25T07:08:07.436Z,28.32
2018-09-25T07:10:41.427Z,29.70
2018-09-25T07:13:15.501Z,30.68
2018-09-25T07:15:50.193Z,30.83
2018-09-25T07:18:24.158Z,32.11
2018-09-25T07:20:57.926Z,32.65
2018-09-25T07:23:33.505Z,32.71
2018-09-25T07:26:07.324Z,32.64
2018-09-25T07:28:41.262Z,31.34
2018-09-25T07:31:15.620Z,31.31
2018-09-25T07:33:49.492Z,30.62
2018-09-25T07:36:24.526Z,31.86
2018-09-25T07:38:58.394Z,32.21
2018-09-25T07:41:32.389Z,32.86
2018-09-25T07:44:06.222Z,29.73
2018-09-25T07:46:40.140Z,27.60
2018-09-25T07:49:14.048Z,23.20
2018-09-25T07:51:48.789Z,19.80
2018-09-25T07:54:22.600Z,18.02
2018-09-25T07:56:57.081Z,16.01
2018-09-25T07:59:30.959Z,14.94
2018-09-25T08:02:06.261Z,15.84
2018-09-25T08:04:40.462Z,18.63
2018-09-25T08:07:14.250Z,20.96
2018-09-25T08:09:48.185Z,23.27
2018-09-25T08:12:22.113Z,24.18
2018-09-25T08:14:56.118Z,25.91
2018-09-25T08:17:29.931Z,25.12
2018-09-25T08:20:04.082Z,28.87
2018-09-25T08:22:37.870Z,31.16
2018-09-25T08:25:11.613Z,32.25
2018-09-25T08:27:45.464Z,33.83
2018-09-25T08:30:19.275Z,34.24
2018-09-25T08:32:53.112Z,35.30
2018-09-25T08:35:26.844Z,35.92
2018-09-25T08:38:00.738Z,36.53
2018-09-25T08:40:34.529Z,34.22
2018-09-25T08:43:08.456Z,36.44
2018-09-25T08:45:42.385Z,36.78
2018-09-25T08:48:16.212Z,37.74
2018-09-25T08:50:49.985Z,38.07
2018-09-25T08:53:23.961Z,37.59
2018-09-25T08:55:57.825Z,36.39
2018-09-25T08:58:31.581Z,36.14
2018-09-25T09:01:05.390Z,37.42
2018-09-25T09:03:39.314Z,37.72
2018-09-25T09:06:13.272Z,37.62
2018-09-25T09:08:54.268Z,37.20
2018-09-25T09:11:28.086Z,37.76
2018-09-25T09:14:01.931Z,38.78
2018-09-25T09:16:35.941Z,37.69
2018-09-25T09:19:09.776Z,39.67
2018-09-25T09:21:43.585Z,39.95
2018-09-25T09:24:17.474Z,40.54
2018-09-25T09:26:51.384Z,39.65
2018-09-25T09:29:25.282Z,37.52
2018-09-25T09:31:59.685Z,38.10
2018-09-25T09:34:33.512Z,37.32
2018-09-25T09:37:07.324Z,38.20
2018-09-25T09:39:41.156Z,38.64
2018-09-25T09:42:15.057Z,36.04
2018-09-25T09:44:48.782Z,32.09
2018-09-25T09:47:22.689Z,33.22
2018-09-25T09:49:56.399Z,34.90
2018-09-25T09:52:30.177Z,35.64
2018-09-25T09:55:04.008Z,36.55
2018-09-25T09:57:37.792Z,36.90
2018-09-25T10:00:11.560Z,37.36
2018-09-25T10:02:45.398Z,37.48
2018-09-25T10:05:19.184Z,38.70
2018-09-25T10:07:52.993Z,38.35
2018-09-25T10:10:26.770Z,37.86
2018-09-25T10:13:00.749Z,37.83
2018-09-25T10:15:34.534Z,37.23
2018-09-25T10:18:08.437Z,36.25
2018-09-25T10:20:42.313Z,35.37
2018-09-25T10:23:15.973Z,34.92
2018-09-25T10:25:49.710Z,33.02
2018-09-25T10:28:23.648Z,31.10
2018-09-25T10:30:57.499Z,27.93
2018-09-25T10:33:31.267Z,24.38
2018-09-25T10:36:04.976Z,24.12
2018-09-25T10:38:38.732Z,25.82
2018-09-25T10:41:12.577Z,28.46
2018-09-25T10:43:46.388Z,28.88
2018-09-25T10:46:20.077Z,26.55
2018-09-25T10:48:53.926Z,26.69
2018-09-25T10:51:27.669Z,28.64
2018-09-25T10:54:01.561Z,29.63
2018-09-25T10:56:35.366Z,29.80
2018-09-25T10:59:09.442Z,30.30
2018-09-25T11:01:43.293Z,30.81
2018-09-25T11:04:17.233Z,29.41
2018-09-25T11:06:51.024Z,28.62
2018-09-25T11:09:24.867Z,25.37
2018-09-25T11:11:58.556Z,24.80
2018-09-25T11:14:32.385Z,25.30
2018-09-25T11:17:06.117Z,27.28
2018-09-25T11:19:39.908Z,26.41
2018-09-25T11:22:13.684Z,24.91
2018-09-25T11:24:47.584Z,23.92
2018-09-25T11:27:21.441Z,24.67
2018-09-25T11:29:55.344Z,25.63
2018-09-25T11:32:29.199Z,27.23
2018-09-25T11:35:03.167Z,28.14
2018-09-25T11:37:36.940Z,28.67
2018-09-25T11:40:10.688Z,27.99
2018-09-25T11:42:44.424Z,27.63
2018-09-25T11:45:18.259Z,27.96
2018-09-25T11:47:51.941Z,28.90
2018-09-25T11:50:25.841Z,28.36
2018-09-25T11:52:59.700Z,26.84
2018-09-25T11:55:33.425Z,25.62
2018-09-25T11:58:07.231Z,24.57
2018-09-25T12:00:41.036Z,23.36
2018-09-25T12:03:14.898Z,22.17
2018-09-25T12:05:48.647Z,21.03
2018-09-25T12:08:22.364Z,19.90
2018-09-25T12:10:56.234Z,19.04
2018-09-25T12:13:30.114Z,19.06
2018-09-25T12:16:03.968Z,19.88
2018-09-25T12:18:38.804Z,20.40
2018-09-25T12:21:12.876Z,21.05
2018-09-25T12:23:46.740Z,21.48
2018-09-25T12:26:20.514Z,22.06
2018-09-25T12:28:54.274Z,22.59
2018-09-25T12:31:28.107Z,22.79
2018-09-25T12:34:01.994Z,23.21
2018-09-25T12:36:35.719Z,22.57
2018-09-25T12:39:11.733Z,22.11
2018-09-25T12:41:45.567Z,21.43
2018-09-25T12:44:19.280Z,20.80
2018-09-25T12:46:53.108Z,19.87
2018-09-25T12:49:26.990Z,19.55
2018-09-25T12:52:00.689Z,19.00
2018-09-25T12:54:34.444Z,18.65
2018-09-25T12:57:08.449Z,17.91
2018-09-25T12:59:42.461Z,17.47
2018-09-25T13:02:16.517Z,17.24
2018-09-25T13:04:50.281Z,17.32
2018-09-25T13:07:24.730Z,18.65
2018-09-25T13:09:58.584Z,19.91
2018-09-25T13:12:32.393Z,20.34
2018-09-25T13:15:06.406Z,19.40
2018-09-25T13:17:40.341Z,18.32
2018-09-25T13:20:14.227Z,18.06
2018-09-25T13:22:49.521Z,18.45
2018-09-25T13:25:23.660Z,18.23
2018-09-25T13:27:57.716Z,18.20
2018-09-25T13:30:32.217Z,18.08
2018-09-25T13:33:06.233Z,19.24
2018-09-25T13:35:40.069Z,19.84
2018-09-25T13:38:13.877Z,20.28
2018-09-25T13:40:47.596Z,21.28
2018-09-25T13:43:21.376Z,21.44
2018-09-25T13:45:55.255Z,21.28
2018-09-25T13:48:29.206Z,21.87
2018-09-25T13:51:02.968Z,21.85
2018-09-25T13:53:36.742Z,20.28
2018-09-25T13:56:10.770Z,19.24
2018-09-25T13:58:44.662Z,18.55
2018-09-25T14:01:18.512Z,18.96
2018-09-25T14:03:52.410Z,19.74
2018-09-25T14:06:26.282Z,20.11
2018-09-25T14:09:00.067Z,20.08
2018-09-25T14:11:33.888Z,20.59
2018-09-25T14:14:07.622Z,21.10
2018-09-25T14:16:41.298Z,21.15
2018-09-25T14:19:14.965Z,21.99
2018-09-25T14:21:48.909Z,22.43
2018-09-25T14:24:22.652Z,22.03
2018-09-25T14:26:56.606Z,22.00
2018-09-25T14:29:30.586Z,22.07
2018-09-25T14:32:04.337Z,22.41
2018-09-25T14:34:38.234Z,21.57
2018-09-25T14:37:12.158Z,20.69
2018-09-25T14:39:45.992Z,19.40
2018-09-25T14:42:19.906Z,17.83
2018-09-25T14:44:53.633Z,17.30
2018-09-25T14:47:27.586Z,16.99
2018-09-25T14:50:01.217Z,16.57
2018-09-25T14:52:35.045Z,15.74
2018-09-25T14:55:08.750Z,15.67
2018-09-25T14:57:42.532Z,15.97
2018-09-25T15:00:15.845Z,16.18
2018-09-25T15:02:49.589Z,16.51
2018-09-25T15:05:23.429Z,17.54
2018-09-25T15:07:57.322Z,18.41
2018-09-25T15:10:31.149Z,19.20
2018-09-25T15:13:05.127Z,20.06
2018-09-25T15:15:38.875Z,20.60
2018-09-25T15:18:12.802Z,20.92
2018-09-25T15:20:46.518Z,21.07
2018-09-25T15:23:20.262Z,21.38
2018-09-25T15:25:54.225Z,21.47
2018-09-25T15:28:27.977Z,20.83
2018-09-25T15:31:01.784Z,19.81
2018-09-25T15:33:35.552Z,19.64
2018-09-25T15:36:09.450Z,20.21
2018-09-25T15:38:43.229Z,20.73
2018-09-25T15:41:17.151Z,21.08
2018-09-25T15:43:50.948Z,21.58
2018-09-25T15:46:24.610Z,21.68
2018-09-25T15:48:58.979Z,21.89
2018-09-25T15:51:32.759Z,21.92
2018-09-25T15:54:08.054Z,21.66
2018-09-25T15:56:42.724Z,21.92
2018-09-25T15:59:16.553Z,21.80
2018-09-25T16:01:50.525Z,21.19
2018-09-25T16:04:24.414Z,20.28
2018-09-25T16:06:58.336Z,19.70
2018-09-25T16:09:32.291Z,19.35
2018-09-25T16:12:06.149Z,18.86
2018-09-25T16:14:40.251Z,18.32
2018-09-25T16:17:14.501Z,17.30
2018-09-25T16:19:48.566Z,17.33
2018-09-25T16:22:22.463Z,17.74
2018-09-25T16:24:56.585Z,18.03
2018-09-25T16:27:30.591Z,18.17
2018-09-25T16:30:04.737Z,18.28
2018-09-25T16:32:39.699Z,18.34
2018-09-25T16:35:13.480Z,18.12
2018-09-25T16:37:48.312Z,17.87
2018-09-25T16:40:22.212Z,17.33
2018-09-25T16:42:55.951Z,16.93
2018-09-25T16:45:29.743Z,16.54
2018-09-25T16:48:03.505Z,16.05
2018-09-25T16:50:37.249Z,15.47
2018-09-25T16:53:10.949Z,15.14
2018-09-25T16:55:44.876Z,14.81
2018-09-25T16:58:18.724Z,14.55
2018-09-25T17:00:52.604Z,14.24
2018-09-25T17:03:26.422Z,14.13
2018-09-25T17:06:00.436Z,13.94
2018-09-25T17:08:34.305Z,13.79
2018-09-25T17:11:08.102Z,13.54
2018-09-25T17:13:41.781Z,13.46
2018-09-25T17:16:15.515Z,13.28
2018-09-25T17:18:49.278Z,13.10
2018-09-25T17:21:23.022Z,12.86
2018-09-25T17:23:56.830Z,12.67
2018-09-25T17:26:30.580Z,12.55
2018-09-25T17:29:04.493Z,12.42
2018-09-25T17:31:38.270Z,12.36
2018-09-25T17:34:12.249Z,12.25
2018-09-25T17:36:46.049Z,12.19
2018-09-25T17:39:19.941Z,12.07
2018-09-25T17:41:53.886Z,12.00
2018-09-25T17:44:27.774Z,11.90
2018-09-25T17:47:01.446Z,11.89
2018-09-25T17:49:35.127Z,11.68
2018-09-25T17:52:08.984Z,11.63
2018-09-25T17:54:42.888Z,11.45
2018-09-25T17:57:16.688Z,11.31
2018-09-25T17:59:50.517Z,11.15
2018-09-25T18:02:24.313Z,11.03
2018-09-25T18:05:00.602Z,11.00
2018-09-25T18:07:34.381Z,10.90
2018-09-25T18:10:08.121Z,10.78
2018-09-25T18:12:42.018Z,10.70
2018-09-25T18:15:15.857Z,10.59
2018-09-25T18:17:49.525Z,10.44
2018-09-25T18:20:23.336Z,10.40
2018-09-25T18:22:57.160Z,10.26
2018-09-25T18:25:30.805Z,10.17
2018-09-25T18:28:04.744Z,10.17
2018-09-25T18:30:38.552Z,10.08
2018-09-25T18:33:12.453Z,10.00
2018-09-25T18:35:46.093Z,9.90
2018-09-25T18:38:19.848Z,9.94
2018-09-25T18:40:53.601Z,9.72
2018-09-25T18:43:27.508Z,9.79
2018-09-25T18:46:01.211Z,9.72
2018-09-25T18:48:34.959Z,9.66
2018-09-25T18:51:08.626Z,9.59
2018-09-25T18:53:42.281Z,9.46
2018-09-25T18:56:16.181Z,9.36
2018-09-25T18:58:49.908Z,9.31
2018-09-25T19:01:23.692Z,9.29
2018-09-25T19:03:57.474Z,9.26
2018-09-25T19:06:31.272Z,9.16
2018-09-25T19:09:05.056Z,9.12
2018-09-25T19:11:38.908Z,9.13
2018-09-25T19:14:12.824Z,9.04
2018-09-25T19:16:46.670Z,9.09
2018-09-25T19:19:20.561Z,9.05
2018-09-25T19:21:54.437Z,8.92
2018-09-25T19:24:28.369Z,8.92
2018-09-25T19:27:02.763Z,8.93
2018-09-25T19:29:36.676Z,8.85
2018-09-25T19:32:10.374Z,8.78
2018-09-25T19:34:44.174Z,8.73
2018-09-25T19:37:17.989Z,8.66
2018-09-25T19:39:51.905Z,8.61
2018-09-25T19:42:25.596Z,8.60
2018-09-25T19:44:59.533Z,8.56
2018-09-25T19:47:33.328Z,8.47
2018-09-25T19:50:07.097Z,8.40
2018-09-25T19:52:40.904Z,8.42
2018-09-25T19:55:14.631Z,8.40
2018-09-25T19:57:48.300Z,8.29
2018-09-25T20:00:22.141Z,8.30
2018-09-25T20:02:55.977Z,8.16
2018-09-25T20:05:29.744Z,8.10
2018-09-25T20:08:03.416Z,8.07
2018-09-25T20:10:37.204Z,8.12
2018-09-25T20:13:11.185Z,8.03
2018-09-25T20:15:45.096Z,7.95
2018-09-25T20:18:18.978Z,7.93
2018-09-25T20:20:52.682Z,7.75
2018-09-25T20:23:26.666Z,7.53
2018-09-25T20:26:00.512Z,7.48
2018-09-25T20:28:34.175Z,7.27
2018-09-25T20:31:07.826Z,7.18
2018-09-25T20:33:41.642Z,6.99
2018-09-25T20:36:15.584Z,6.85
2018-09-25T20:38:49.516Z,7.07
2018-09-25T20:41:23.370Z,7.09
2018-09-25T20:43:57.053Z,7.14
2018-09-25T20:46:30.828Z,7.19
2018-09-25T20:49:04.730Z,7.29
2018-09-25T20:51:38.684Z,7.29
2018-09-25T20:54:12.516Z,7.28
2018-09-25T20:56:46.193Z,7.17
2018-09-25T20:59:19.926Z,7.12
2018-09-25T21:01:53.820Z,7.07
2018-09-25T21:04:27.433Z,7.10
2018-09-25T21:07:01.192Z,7.00
2018-09-25T21:09:35.068Z,6.59
2018-09-25T21:12:08.829Z,6.50
2018-09-25T21:14:42.639Z,6.35
2018-09-25T21:17:16.433Z,6.56
2018-09-25T21:19:50.167Z,6.63
2018-09-25T21:22:23.844Z,6.68
2018-09-25T21:24:57.624Z,6.71
2018-09-25T21:27:31.498Z,6.70
2018-09-25T21:30:05.189Z,6.75
2018-09-25T21:32:39.008Z,6.71
2018-09-25T21:35:12.972Z,6.71
2018-09-25T21:37:46.783Z,6.72
2018-09-25T21:40:20.533Z,6.72
2018-09-25T21:42:54.476Z,6.76
2018-09-25T21:45:28.391Z,6.73
2018-09-25T21:48:02.212Z,6.65
2018-09-25T21:50:36.109Z,6.63
2018-09-25T21:53:09.945Z,6.65
2018-09-25T21:55:43.632Z,6.41
2018-09-25T21:58:17.328Z,5.91
2018-09-25T22:00:51.076Z,5.74
2018-09-25T22:03:24.764Z,5.92
2018-09-25T22:05:58.708Z,5.69
2018-09-25T22:08:32.679Z,5.83
2018-09-25T22:11:06.496Z,5.95
2018-09-25T22:13:40.534Z,6.03
2018-09-25T22:16:14.121Z,5.98
2018-09-25T22:18:47.883Z,6.02
2018-09-25T22:21:21.810Z,5.95
2018-09-25T22:23:55.804Z,5.96
2018-09-25T22:26:29.697Z,5.91
2018-09-25T22:29:03.507Z,6.02
2018-09-25T22:31:37.251Z,5.87
2018-09-25T22:34:11.193Z,5.85
2018-09-25T22:36:44.956Z,5.90
2018-09-25T22:39:18.910Z,5.84
2018-09-25T22:41:52.721Z,5.84
2018-09-25T22:44:26.640Z,5.79
2018-09-25T22:47:00.558Z,5.75
2018-09-25T22:49:34.421Z,5.78
2018-09-25T22:52:08.225Z,5.75
2018-09-25T22:54:41.994Z,5.65
2018-09-25T22:57:15.644Z,5.69
2018-09-25T22:59:49.435Z,5.64
2018-09-25T23:02:23.393Z,5.62
2018-09-25T23:04:57.181Z,5.54
2018-09-25T23:07:31.080Z,5.48
2018-09-25T23:10:04.785Z,5.38
2018-09-25T23:12:38.500Z,5.38
2018-09-25T23:15:12.574Z,5.43
2018-09-25T23:17:46.447Z,5.35
2018-09-25T23:20:20.490Z,5.35
2018-09-25T23:22:54.478Z,5.31
2018-09-25T23:25:28.297Z,5.21
2018-09-25T23:28:02.192Z,5.24
2018-09-25T23:30:36.135Z,5.27
2018-09-25T23:33:09.990Z,5.22
2018-09-25T23:35:43.858Z,5.33
2018-09-25T23:38:17.884Z,5.32
2018-09-25T23:40:52.572Z,5.23
2018-09-25T23:43:28.313Z,5.24
2018-09-25T23:46:02.881Z,5.09
2018-09-25T23:48:39.565Z,5.09
2018-09-25T23:51:16.408Z,5.02
2018-09-25T23:53:51.943Z,4.97
2018-09-25T23:56:30.499Z,4.96
2018-09-25T23:59:02.773Z,4.94
